sensor_id;sensor_type;location;lat;lon;timestamp;P1;durP1;ratioP1;P2;durP2;ratioP2
47129;SDS011;69689;48.122;11.542;2023-07-28T05:05:16;0.55;;;0.00;;
47129;SDS011;69689;48.122;11.542;2023-07-28T05:07:42;0.00;;;0.00;;
47129;SDS011;69689;48.122;11.542;2023-07-28T05:10:07;0.00;;;0.00;;
47129;SDS011;69689;48.122;11.542;2023-07-28T05:12:33;0.00;;;0.00;;
47129;SDS011;69689;48.122;11.542;2023-07-28T05:14:58;0.00;;;0.00;;
47129;SDS011;69689;48.122;11.542;2023-07-28T05:17:24;0.00;;;0.00;;
47129;SDS011;69689;48.122;11.542;2023-07-28T05:19:49;0.00;;;0.00;;
47129;SDS011;69689;48.122;11.542;2023-07-28T05:22:15;0.00;;;0.00;;
47129;SDS011;69689;48.122;11.542;2023-07-28T05:24:40;0.00;;;0.00;;
47129;SDS011;69689;48.122;11.542;2023-07-28T05:27:05;0.00;;;0.00;;
47129;SDS011;69689;48.122;11.542;2023-07-28T05:29:31;0.00;;;0.00;;
47129;SDS011;69689;48.122;11.542;2023-07-28T05:32:01;0.00;;;0.00;;
47129;SDS011;69689;48.122;11.542;2023-07-28T05:34:45;0.00;;;0.00;;
47129;SDS011;69689;48.122;11.542;2023-07-28T05:37:10;0.00;;;0.00;;
47129;SDS011;69689;48.122;11.542;2023-07-28T05:39:36;0.00;;;0.00;;
47129;SDS011;69689;48.122;11.542;2023-07-28T05:42:01;0.00;;;0.00;;
47129;SDS011;69689;48.122;11.542;2023-07-28T05:44:26;0.00;;;0.00;;
47129;SDS011;69689;48.122;11.542;2023-07-28T05:46:52;0.00;;;0.00;;
47129;SDS011;69689;48.122;11.542;2023-07-28T05:49:17;0.00;;;0.00;;
47129;SDS011;69689;48.122;11.542;2023-07-28T05:51:42;0.00;;;0.00;;
47129;SDS011;69689;48.122;11.542;2023-07-28T05:54:08;0.00;;;0.00;;
47129;SDS011;69689;48.122;11.542;2023-07-28T05:56:33;0.00;;;0.00;;
47129;SDS011;69689;48.122;11.542;2023-07-28T05:58:58;0.00;;;0.00;;
47129;SDS011;69689;48.122;11.542;2023-07-28T06:01:23;0.00;;;0.00;;
47129;SDS011;69689;48.122;11.542;2023-07-28T06:03:51;0.00;;;0.00;;
47129;SDS011;69689;48.122;11.542;2023-07-28T06:06:17;0.00;;;0.00;;
47129;SDS011;69689;48.122;11.542;2023-07-28T06:08:43;0.00;;;0.00;;
47129;SDS011;69689;48.122;11.542;2023-07-28T06:11:08;0.00;;;0.00;;
47129;SDS011;69689;48.122;11.542;2023-07-28T06:13:34;0.00;;;0.00;;
47129;SDS011;69689;48.122;11.542;2023-07-28T06:15:59;0.00;;;0.00;;
47129;SDS011;69689;48.122;11.542;2023-07-28T06:18:25;0.00;;;0.00;;
47129;SDS011;69689;48.122;11.542;2023-07-28T06:20:50;0.00;;;0.00;;
47129;SDS011;69689;48.122;11.542;2023-07-28T06:23:15;0.00;;;0.00;;
47129;SDS011;69689;48.122;11.542;2023-07-28T06:25:41;0.00;;;0.00;;
47129;SDS011;69689;48.122;11.542;2023-07-28T06:28:10;0.00;;;0.00;;
47129;SDS011;69689;48.122;11.542;2023-07-28T06:30:36;0.00;;;0.00;;
47129;SDS011;69689;48.122;11.542;2023-07-28T06:33:02;0.00;;;0.00;;
47129;SDS011;69689;48.122;11.542;2023-07-28T06:35:28;0.00;;;0.00;;
47129;SDS011;69689;48.122;11.542;2023-07-28T06:37:53;0.00;;;0.00;;
47129;SDS011;69689;48.122;11.542;2023-07-28T06:40:19;0.00;;;0.00;;
47129;SDS011;69689;48.122;11.542;2023-07-28T06:42:45;0.00;;;0.00;;
47129;SDS011;69689;48.122;11.542;2023-07-28T06:45:11;0.00;;;0.00;;
47129;SDS011;69689;48.122;11.542;2023-07-28T06:47:36;0.00;;;0.00;;
47129;SDS011;69689;48.122;11.542;2023-07-28T06:50:02;0.00;;;0.00;;
47129;SDS011;69689;48.122;11.542;2023-07-28T06:52:27;0.00;;;0.00;;
47129;SDS011;69689;48.122;11.542;2023-07-28T06:54:52;0.00;;;0.00;;
47129;SDS011;69689;48.122;11.542;2023-07-28T06:57:19;0.00;;;0.00;;
47129;SDS011;69689;48.122;11.542;2023-07-28T06:59:45;0.03;;;0.00;;
47129;SDS011;69689;48.122;11.542;2023-07-28T07:02:10;0.00;;;0.00;;
47129;SDS011;69689;48.122;11.542;2023-07-28T07:04:35;0.00;;;0.00;;
47129;SDS011;69689;48.122;11.542;2023-07-28T07:07:01;0.00;;;0.00;;
47129;SDS011;69689;48.122;11.542;2023-07-28T07:09:27;0.00;;;0.00;;
47129;SDS011;69689;48.122;11.542;2023-07-28T07:11:52;0.00;;;0.00;;
47129;SDS011;69689;48.122;11.542;2023-07-28T07:14:18;0.00;;;0.00;;
47129;SDS011;69689;48.122;11.542;2023-07-28T07:16:44;0.00;;;0.00;;
47129;SDS011;69689;48.122;11.542;2023-07-28T07:19:09;0.00;;;0.00;;
47129;SDS011;69689;48.122;11.542;2023-07-28T07:21:34;0.00;;;0.00;;
47129;SDS011;69689;48.122;11.542;2023-07-28T07:24:00;0.00;;;0.00;;
47129;SDS011;69689;48.122;11.542;2023-07-28T07:26:26;0.00;;;0.00;;
47129;SDS011;69689;48.122;11.542;2023-07-28T07:28:51;0.00;;;0.00;;
47129;SDS011;69689;48.122;11.542;2023-07-28T07:31:17;0.00;;;0.00;;
47129;SDS011;69689;48.122;11.542;2023-07-28T07:33:43;0.00;;;0.00;;
47129;SDS011;69689;48.122;11.542;2023-07-28T07:36:15;0.00;;;0.00;;
47129;SDS011;69689;48.122;11.542;2023-07-28T07:38:41;0.00;;;0.00;;
47129;SDS011;69689;48.122;11.542;2023-07-28T07:41:07;0.00;;;0.00;;
47129;SDS011;69689;48.122;11.542;2023-07-28T07:43:33;0.00;;;0.00;;
47129;SDS011;69689;48.122;11.542;2023-07-28T07:45:59;0.00;;;0.00;;
47129;SDS011;69689;48.122;11.542;2023-07-28T07:48:25;0.00;;;0.00;;
47129;SDS011;69689;48.122;11.542;2023-07-28T07:50:51;0.00;;;0.00;;
47129;SDS011;69689;48.122;11.542;2023-07-28T07:53:16;0.00;;;0.00;;
47129;SDS011;69689;48.122;11.542;2023-07-28T07:55:41;0.00;;;0.00;;
47129;SDS011;69689;48.122;11.542;2023-07-28T07:58:07;0.00;;;0.00;;
47129;SDS011;69689;48.122;11.542;2023-07-28T08:00:32;0.00;;;0.00;;
47129;SDS011;69689;48.122;11.542;2023-07-28T08:02:57;0.00;;;0.00;;
47129;SDS011;69689;48.122;11.542;2023-07-28T08:05:23;0.00;;;0.00;;
47129;SDS011;69689;48.122;11.542;2023-07-28T08:07:48;0.00;;;0.00;;
47129;SDS011;69689;48.122;11.542;2023-07-28T08:10:15;0.00;;;0.00;;
47129;SDS011;69689;48.122;11.542;2023-07-28T08:12:41;0.00;;;0.00;;
47129;SDS011;69689;48.122;11.542;2023-07-28T08:15:06;0.00;;;0.00;;
47129;SDS011;69689;48.122;11.542;2023-07-28T08:17:32;0.00;;;0.00;;
47129;SDS011;69689;48.122;11.542;2023-07-28T08:19:57;0.10;;;0.00;;
47129;SDS011;69689;48.122;11.542;2023-07-28T08:22:22;0.00;;;0.00;;
47129;SDS011;69689;48.122;11.542;2023-07-28T08:24:48;0.00;;;0.00;;
47129;SDS011;69689;48.122;11.542;2023-07-28T08:27:13;0.00;;;0.00;;
47129;SDS011;69689;48.122;11.542;2023-07-28T08:29:38;0.00;;;0.00;;
47129;SDS011;69689;48.122;11.542;2023-07-28T08:32:04;0.00;;;0.00;;
47129;SDS011;69689;48.122;11.542;2023-07-28T08:34:29;0.00;;;0.00;;
47129;SDS011;69689;48.122;11.542;2023-07-28T08:36:55;0.00;;;0.00;;
47129;SDS011;69689;48.122;11.542;2023-07-28T08:39:20;0.00;;;0.00;;
47129;SDS011;69689;48.122;11.542;2023-07-28T08:41:45;0.10;;;0.10;;
47129;SDS011;69689;48.122;11.542;2023-07-28T08:44:11;0.00;;;0.00;;
47129;SDS011;69689;48.122;11.542;2023-07-28T08:46:36;0.00;;;0.00;;
47129;SDS011;69689;48.122;11.542;2023-07-28T08:49:02;0.00;;;0.00;;
47129;SDS011;69689;48.122;11.542;2023-07-28T08:51:27;0.10;;;0.10;;
47129;SDS011;69689;48.122;11.542;2023-07-28T08:53:53;0.10;;;0.10;;
47129;SDS011;69689;48.122;11.542;2023-07-28T08:56:18;0.00;;;0.00;;
47129;SDS011;69689;48.122;11.542;2023-07-28T08:58:44;0.08;;;0.08;;
47129;SDS011;69689;48.122;11.542;2023-07-28T09:01:10;0.05;;;0.05;;
47129;SDS011;69689;48.122;11.542;2023-07-28T09:03:35;0.00;;;0.00;;
47129;SDS011;69689;48.122;11.542;2023-07-28T09:06:06;0.10;;;0.10;;
47129;SDS011;69689;48.122;11.542;2023-07-28T09:08:33;0.10;;;0.10;;
47129;SDS011;69689;48.122;11.542;2023-07-28T09:11:01;0.00;;;0.00;;
47129;SDS011;69689;48.122;11.542;2023-07-28T09:13:35;0.00;;;0.00;;
47129;SDS011;69689;48.122;11.542;2023-07-28T09:16:01;0.00;;;0.00;;
47129;SDS011;69689;48.122;11.542;2023-07-28T09:18:27;0.00;;;0.00;;
47129;SDS011;69689;48.122;11.542;2023-07-28T09:20:52;0.00;;;0.00;;
47129;SDS011;69689;48.122;11.542;2023-07-28T09:23:18;0.00;;;0.00;;
47129;SDS011;69689;48.122;11.542;2023-07-28T09:25:58;0.00;;;0.00;;
47129;SDS011;69689;48.122;11.542;2023-07-28T09:28:35;0.00;;;0.00;;
47129;SDS011;69689;48.122;11.542;2023-07-28T09:31:01;0.00;;;0.00;;
47129;SDS011;69689;48.122;11.542;2023-07-28T09:33:29;0.00;;;0.00;;
47129;SDS011;69689;48.122;11.542;2023-07-28T09:35:56;0.00;;;0.00;;
47129;SDS011;69689;48.122;11.542;2023-07-28T09:38:22;0.00;;;0.00;;
47129;SDS011;69689;48.122;11.542;2023-07-28T09:40:49;0.00;;;0.00;;
47129;SDS011;69689;48.122;11.542;2023-07-28T09:43:14;0.00;;;0.00;;
47129;SDS011;69689;48.122;11.542;2023-07-28T09:45:40;0.00;;;0.00;;
47129;SDS011;69689;48.122;11.542;2023-07-28T09:48:06;0.00;;;0.00;;
47129;SDS011;69689;48.122;11.542;2023-07-28T09:50:32;0.00;;;0.00;;
47129;SDS011;69689;48.122;11.542;2023-07-28T09:53:01;0.00;;;0.00;;
47129;SDS011;69689;48.122;11.542;2023-07-28T09:55:28;0.00;;;0.00;;
47129;SDS011;69689;48.122;11.542;2023-07-28T09:57:54;0.00;;;0.00;;
47129;SDS011;69689;48.122;11.542;2023-07-28T10:00:21;0.00;;;0.00;;
47129;SDS011;69689;48.122;11.542;2023-07-28T10:02:47;0.00;;;0.00;;
47129;SDS011;69689;48.122;11.542;2023-07-28T10:05:13;0.00;;;0.00;;
47129;SDS011;69689;48.122;11.542;2023-07-28T10:07:40;0.10;;;0.10;;
47129;SDS011;69689;48.122;11.542;2023-07-28T10:10:08;0.05;;;0.05;;
47129;SDS011;69689;48.122;11.542;2023-07-28T10:15:18;0.22;;;0.22;;
47129;SDS011;69689;48.122;11.542;2023-07-28T10:17:45;0.20;;;0.20;;
47129;SDS011;69689;48.122;11.542;2023-07-28T10:23:08;0.13;;;0.13;;
47129;SDS011;69689;48.122;11.542;2023-07-28T10:25:36;0.20;;;0.20;;
47129;SDS011;69689;48.122;11.542;2023-07-28T10:28:03;0.30;;;0.30;;
47129;SDS011;69689;48.122;11.542;2023-07-28T10:30:36;0.10;;;0.10;;
47129;SDS011;69689;48.122;11.542;2023-07-28T10:33:02;0.10;;;0.10;;
47129;SDS011;69689;48.122;11.542;2023-07-28T10:35:28;0.00;;;0.00;;
47129;SDS011;69689;48.122;11.542;2023-07-28T10:37:56;0.10;;;0.10;;
47129;SDS011;69689;48.122;11.542;2023-07-28T10:40:28;0.05;;;0.05;;
47129;SDS011;69689;48.122;11.542;2023-07-28T10:42:57;0.00;;;0.00;;
47129;SDS011;69689;48.122;11.542;2023-07-28T10:45:23;0.00;;;0.00;;
47129;SDS011;69689;48.122;11.542;2023-07-28T10:47:50;0.00;;;0.00;;
47129;SDS011;69689;48.122;11.542;2023-07-28T10:50:16;0.05;;;0.05;;
47129;SDS011;69689;48.122;11.542;2023-07-28T10:52:43;0.05;;;0.05;;
47129;SDS011;69689;48.122;11.542;2023-07-28T10:57:40;0.15;;;0.15;;
47129;SDS011;69689;48.122;11.542;2023-07-28T11:00:06;0.10;;;0.10;;
47129;SDS011;69689;48.122;11.542;2023-07-28T11:02:32;0.10;;;0.10;;
47129;SDS011;69689;48.122;11.542;2023-07-28T11:04:58;0.10;;;0.10;;
47129;SDS011;69689;48.122;11.542;2023-07-28T11:07:23;0.25;;;0.25;;
47129;SDS011;69689;48.122;11.542;2023-07-28T11:09:49;0.30;;;0.30;;
47129;SDS011;69689;48.122;11.542;2023-07-28T11:12:15;0.70;;;0.70;;
47129;SDS011;69689;48.122;11.542;2023-07-28T11:14:40;0.68;;;0.68;;
47129;SDS011;69689;48.122;11.542;2023-07-28T11:17:06;1.93;;;1.93;;
47129;SDS011;69689;48.122;11.542;2023-07-28T11:19:31;1.80;;;1.80;;
47129;SDS011;69689;48.122;11.542;2023-07-28T11:21:58;2.30;;;2.30;;
47129;SDS011;69689;48.122;11.542;2023-07-28T11:24:24;1.05;;;1.05;;
47129;SDS011;69689;48.122;11.542;2023-07-28T11:26:52;0.63;;;0.63;;
47129;SDS011;69689;48.122;11.542;2023-07-28T11:29:18;0.73;;;0.73;;
47129;SDS011;69689;48.122;11.542;2023-07-28T11:31:43;0.47;;;0.47;;
47129;SDS011;69689;48.122;11.542;2023-07-28T11:34:13;0.20;;;0.20;;
47129;SDS011;69689;48.122;11.542;2023-07-28T11:36:39;0.20;;;0.20;;
47129;SDS011;69689;48.122;11.542;2023-07-28T11:39:04;0.50;;;0.50;;
47129;SDS011;69689;48.122;11.542;2023-07-28T11:41:30;0.73;;;0.73;;
47129;SDS011;69689;48.122;11.542;2023-07-28T11:43:56;0.80;;;0.80;;
47129;SDS011;69689;48.122;11.542;2023-07-28T11:46:31;1.10;;;1.10;;
47129;SDS011;69689;48.122;11.542;2023-07-28T11:49:18;3.20;;;3.20;;
47129;SDS011;69689;48.122;11.542;2023-07-28T11:51:48;9.07;;;8.85;;
47129;SDS011;69689;48.122;11.542;2023-07-28T11:54:15;9.05;;;8.85;;
47129;SDS011;69689;48.122;11.542;2023-07-28T11:56:41;10.85;;;10.55;;
47129;SDS011;69689;48.122;11.542;2023-07-28T11:59:08;13.85;;;13.45;;
47129;SDS011;69689;48.122;11.542;2023-07-28T12:01:33;10.32;;;10.02;;
47129;SDS011;69689;48.122;11.542;2023-07-28T12:03:59;11.00;;;10.70;;
47129;SDS011;69689;48.122;11.542;2023-07-28T12:06:25;10.88;;;10.57;;
47129;SDS011;69689;48.122;11.542;2023-07-28T12:08:51;5.45;;;5.35;;
47129;SDS011;69689;48.122;11.542;2023-07-28T12:11:16;3.25;;;3.25;;
47129;SDS011;69689;48.122;11.542;2023-07-28T12:13:51;3.03;;;3.03;;
47129;SDS011;69689;48.122;11.542;2023-07-28T12:16:37;1.33;;;1.33;;
47129;SDS011;69689;48.122;11.542;2023-07-28T12:19:04;2.92;;;2.92;;
47129;SDS011;69689;48.122;11.542;2023-07-28T12:21:29;2.97;;;2.97;;
47129;SDS011;69689;48.122;11.542;2023-07-28T12:23:56;2.97;;;2.97;;
47129;SDS011;69689;48.122;11.542;2023-07-28T12:26:21;2.70;;;2.70;;
47129;SDS011;69689;48.122;11.542;2023-07-28T12:28:47;1.80;;;1.80;;
47129;SDS011;69689;48.122;11.542;2023-07-28T12:31:12;1.27;;;1.27;;
47129;SDS011;69689;48.122;11.542;2023-07-28T12:33:37;0.82;;;0.82;;
47129;SDS011;69689;48.122;11.542;2023-07-28T12:36:03;0.43;;;0.43;;
47129;SDS011;69689;48.122;11.542;2023-07-28T12:38:28;0.40;;;0.40;;
47129;SDS011;69689;48.122;11.542;2023-07-28T12:40:53;0.33;;;0.33;;
47129;SDS011;69689;48.122;11.542;2023-07-28T12:43:19;0.70;;;0.70;;
47129;SDS011;69689;48.122;11.542;2023-07-28T12:45:45;0.88;;;0.88;;
47129;SDS011;69689;48.122;11.542;2023-07-28T12:48:10;1.88;;;1.88;;
47129;SDS011;69689;48.122;11.542;2023-07-28T12:50:35;3.07;;;3.07;;
47129;SDS011;69689;48.122;11.542;2023-07-28T12:53:01;1.60;;;1.60;;
47129;SDS011;69689;48.122;11.542;2023-07-28T12:55:26;2.33;;;2.33;;
47129;SDS011;69689;48.122;11.542;2023-07-28T12:57:52;4.88;;;4.78;;
47129;SDS011;69689;48.122;11.542;2023-07-28T13:00:18;2.33;;;2.33;;
47129;SDS011;69689;48.122;11.542;2023-07-28T13:02:43;1.90;;;1.90;;
47129;SDS011;69689;48.122;11.542;2023-07-28T13:05:09;1.00;;;1.00;;
47129;SDS011;69689;48.122;11.542;2023-07-28T13:07:39;1.08;;;1.08;;
47129;SDS011;69689;48.122;11.542;2023-07-28T13:10:06;0.95;;;0.95;;
47129;SDS011;69689;48.122;11.542;2023-07-28T13:12:33;0.52;;;0.52;;
47129;SDS011;69689;48.122;11.542;2023-07-28T13:14:59;0.50;;;0.50;;
47129;SDS011;69689;48.122;11.542;2023-07-28T13:17:24;0.83;;;0.83;;
47129;SDS011;69689;48.122;11.542;2023-07-28T13:19:49;1.30;;;1.30;;
47129;SDS011;69689;48.122;11.542;2023-07-28T13:22:14;2.43;;;2.43;;
47129;SDS011;69689;48.122;11.542;2023-07-28T13:24:40;1.98;;;1.98;;
47129;SDS011;69689;48.122;11.542;2023-07-28T13:27:07;1.92;;;1.92;;
47129;SDS011;69689;48.122;11.542;2023-07-28T13:29:32;0.90;;;0.90;;
47129;SDS011;69689;48.122;11.542;2023-07-28T13:31:58;0.60;;;0.60;;
47129;SDS011;69689;48.122;11.542;2023-07-28T13:34:25;0.43;;;0.43;;
47129;SDS011;69689;48.122;11.542;2023-07-28T13:36:50;0.40;;;0.40;;
47129;SDS011;69689;48.122;11.542;2023-07-28T13:39:16;0.30;;;0.30;;
47129;SDS011;69689;48.122;11.542;2023-07-28T13:41:41;0.30;;;0.30;;
47129;SDS011;69689;48.122;11.542;2023-07-28T13:44:06;0.30;;;0.30;;
47129;SDS011;69689;48.122;11.542;2023-07-28T13:46:32;0.30;;;0.30;;
47129;SDS011;69689;48.122;11.542;2023-07-28T13:48:57;0.32;;;0.32;;
47129;SDS011;69689;48.122;11.542;2023-07-28T13:51:22;0.20;;;0.20;;
47129;SDS011;69689;48.122;11.542;2023-07-28T13:53:48;0.10;;;0.10;;
47129;SDS011;69689;48.122;11.542;2023-07-28T13:56:13;0.10;;;0.10;;
47129;SDS011;69689;48.122;11.542;2023-07-28T13:58:38;0.00;;;0.00;;
47129;SDS011;69689;48.122;11.542;2023-07-28T14:01:04;0.00;;;0.00;;
47129;SDS011;69689;48.122;11.542;2023-07-28T14:03:29;0.00;;;0.00;;
47129;SDS011;69689;48.122;11.542;2023-07-28T14:05:54;0.10;;;0.10;;
47129;SDS011;69689;48.122;11.542;2023-07-28T14:08:19;0.00;;;0.00;;
47129;SDS011;69689;48.122;11.542;2023-07-28T14:10:45;0.00;;;0.00;;
47129;SDS011;69689;48.122;11.542;2023-07-28T14:13:11;0.00;;;0.00;;
47129;SDS011;69689;48.122;11.542;2023-07-28T14:15:36;0.00;;;0.00;;
47129;SDS011;69689;48.122;11.542;2023-07-28T14:18:01;0.00;;;0.00;;
47129;SDS011;69689;48.122;11.542;2023-07-28T14:20:27;0.00;;;0.00;;
47129;SDS011;69689;48.122;11.542;2023-07-28T14:22:52;0.00;;;0.00;;
47129;SDS011;69689;48.122;11.542;2023-07-28T14:25:18;0.00;;;0.00;;
47129;SDS011;69689;48.122;11.542;2023-07-28T14:27:43;0.00;;;0.00;;
47129;SDS011;69689;48.122;11.542;2023-07-28T14:30:09;0.00;;;0.00;;
47129;SDS011;69689;48.122;11.542;2023-07-28T14:32:34;0.00;;;0.00;;
47129;SDS011;69689;48.122;11.542;2023-07-28T14:34:59;0.00;;;0.00;;
47129;SDS011;69689;48.122;11.542;2023-07-28T14:37:25;0.00;;;0.00;;
47129;SDS011;69689;48.122;11.542;2023-07-28T14:39:50;0.00;;;0.00;;
47129;SDS011;69689;48.122;11.542;2023-07-28T14:42:15;0.00;;;0.00;;
47129;SDS011;69689;48.122;11.542;2023-07-28T14:44:41;0.00;;;0.00;;
47129;SDS011;69689;48.122;11.542;2023-07-28T14:47:06;0.00;;;0.00;;
47129;SDS011;69689;48.122;11.542;2023-07-28T14:49:31;0.00;;;0.00;;
47129;SDS011;69689;48.122;11.542;2023-07-28T14:51:57;0.00;;;0.00;;
47129;SDS011;69689;48.122;11.542;2023-07-28T14:54:22;0.10;;;0.10;;
47129;SDS011;69689;48.122;11.542;2023-07-28T14:56:48;0.00;;;0.00;;
47129;SDS011;69689;48.122;11.542;2023-07-28T14:59:13;0.77;;;0.77;;
47129;SDS011;69689;48.122;11.542;2023-07-28T15:01:39;0.22;;;0.22;;
47129;SDS011;69689;48.122;11.542;2023-07-28T15:04:04;0.37;;;0.37;;
47129;SDS011;69689;48.122;11.542;2023-07-28T15:06:32;0.40;;;0.40;;
47129;SDS011;69689;48.122;11.542;2023-07-28T15:08:58;1.00;;;1.00;;
47129;SDS011;69689;48.122;11.542;2023-07-28T15:11:24;0.70;;;0.70;;
47129;SDS011;69689;48.122;11.542;2023-07-28T15:13:50;0.88;;;0.88;;
47129;SDS011;69689;48.122;11.542;2023-07-28T15:16:15;0.40;;;0.40;;
47129;SDS011;69689;48.122;11.542;2023-07-28T15:18:41;0.20;;;0.20;;
47129;SDS011;69689;48.122;11.542;2023-07-28T15:21:06;0.23;;;0.23;;
47129;SDS011;69689;48.122;11.542;2023-07-28T15:23:31;0.10;;;0.10;;
47129;SDS011;69689;48.122;11.542;2023-07-28T15:25:56;0.10;;;0.10;;
47129;SDS011;69689;48.122;11.542;2023-07-28T15:28:22;0.10;;;0.10;;
47129;SDS011;69689;48.122;11.542;2023-07-28T15:30:48;0.10;;;0.10;;
47129;SDS011;69689;48.122;11.542;2023-07-28T15:33:16;0.10;;;0.10;;
47129;SDS011;69689;48.122;11.542;2023-07-28T15:35:43;0.00;;;0.00;;
47129;SDS011;69689;48.122;11.542;2023-07-28T15:38:09;0.10;;;0.10;;
47129;SDS011;69689;48.122;11.542;2023-07-28T15:40:34;0.53;;;0.53;;
47129;SDS011;69689;48.122;11.542;2023-07-28T15:42:59;0.28;;;0.28;;
47129;SDS011;69689;48.122;11.542;2023-07-28T15:45:25;0.60;;;0.60;;
47129;SDS011;69689;48.122;11.542;2023-07-28T15:47:51;1.83;;;1.83;;
47129;SDS011;69689;48.122;11.542;2023-07-28T15:50:16;0.93;;;0.93;;
47129;SDS011;69689;48.122;11.542;2023-07-28T15:52:42;0.68;;;0.68;;
47129;SDS011;69689;48.122;11.542;2023-07-28T15:55:07;0.28;;;0.28;;
47129;SDS011;69689;48.122;11.542;2023-07-28T15:57:32;0.65;;;0.65;;
47129;SDS011;69689;48.122;11.542;2023-07-28T15:59:58;1.03;;;1.03;;
47129;SDS011;69689;48.122;11.542;2023-07-28T16:02:23;0.30;;;0.30;;
47129;SDS011;69689;48.122;11.542;2023-07-28T16:04:48;0.45;;;0.45;;
47129;SDS011;69689;48.122;11.542;2023-07-28T16:07:15;0.40;;;0.40;;
47129;SDS011;69689;48.122;11.542;2023-07-28T16:09:40;0.40;;;0.40;;
47129;SDS011;69689;48.122;11.542;2023-07-28T16:12:06;2.13;;;2.13;;
47129;SDS011;69689;48.122;11.542;2023-07-28T16:14:32;3.28;;;3.22;;
47129;SDS011;69689;48.122;11.542;2023-07-28T16:16:57;1.05;;;1.05;;
47129;SDS011;69689;48.122;11.542;2023-07-28T16:19:22;1.25;;;1.25;;
47129;SDS011;69689;48.122;11.542;2023-07-28T16:21:48;3.70;;;3.60;;
47129;SDS011;69689;48.122;11.542;2023-07-28T16:24:15;1.63;;;1.63;;
47129;SDS011;69689;48.122;11.542;2023-07-28T16:26:42;0.50;;;0.50;;
47129;SDS011;69689;48.122;11.542;2023-07-28T16:29:07;0.30;;;0.30;;
47129;SDS011;69689;48.122;11.542;2023-07-28T16:31:32;0.20;;;0.20;;
47129;SDS011;69689;48.122;11.542;2023-07-28T16:33:58;0.10;;;0.10;;
47129;SDS011;69689;48.122;11.542;2023-07-28T16:36:23;0.10;;;0.10;;
47129;SDS011;69689;48.122;11.542;2023-07-28T16:38:48;0.10;;;0.10;;
47129;SDS011;69689;48.122;11.542;2023-07-28T16:41:13;0.00;;;0.00;;
47129;SDS011;69689;48.122;11.542;2023-07-28T16:43:39;0.10;;;0.10;;
47129;SDS011;69689;48.122;11.542;2023-07-28T16:46:04;0.00;;;0.00;;
47129;SDS011;69689;48.122;11.542;2023-07-28T16:48:30;0.00;;;0.00;;
47129;SDS011;69689;48.122;11.542;2023-07-28T16:50:55;0.10;;;0.10;;
47129;SDS011;69689;48.122;11.542;2023-07-28T16:53:20;0.00;;;0.00;;
47129;SDS011;69689;48.122;11.542;2023-07-28T16:55:46;0.00;;;0.00;;
47129;SDS011;69689;48.122;11.542;2023-07-28T16:58:11;0.00;;;0.00;;
47129;SDS011;69689;48.122;11.542;2023-07-28T17:00:36;0.00;;;0.00;;
47129;SDS011;69689;48.122;11.542;2023-07-28T17:03:02;0.10;;;0.00;;
47129;SDS011;69689;48.122;11.542;2023-07-28T17:05:28;0.00;;;0.00;;
47129;SDS011;69689;48.122;11.542;2023-07-28T17:07:53;0.00;;;0.00;;
47129;SDS011;69689;48.122;11.542;2023-07-28T17:10:18;0.00;;;0.00;;
47129;SDS011;69689;48.122;11.542;2023-07-28T17:12:44;0.00;;;0.00;;
47129;SDS011;69689;48.122;11.542;2023-07-28T17:15:09;0.00;;;0.00;;
47129;SDS011;69689;48.122;11.542;2023-07-28T17:17:34;0.00;;;0.00;;
47129;SDS011;69689;48.122;11.542;2023-07-28T17:20:00;0.00;;;0.00;;
47129;SDS011;69689;48.122;11.542;2023-07-28T17:22:25;0.00;;;0.00;;
47129;SDS011;69689;48.122;11.542;2023-07-28T17:24:51;0.00;;;0.00;;
47129;SDS011;69689;48.122;11.542;2023-07-28T17:27:17;0.00;;;0.00;;
47129;SDS011;69689;48.122;11.542;2023-07-28T17:29:43;0.00;;;0.00;;
47129;SDS011;69689;48.122;11.542;2023-07-28T17:32:08;0.00;;;0.00;;
47129;SDS011;69689;48.122;11.542;2023-07-28T17:34:35;0.00;;;0.00;;
47129;SDS011;69689;48.122;11.542;2023-07-28T17:37:01;0.00;;;0.00;;
47129;SDS011;69689;48.122;11.542;2023-07-28T17:39:26;0.03;;;0.00;;
47129;SDS011;69689;48.122;11.542;2023-07-28T17:41:51;0.00;;;0.00;;
47129;SDS011;69689;48.122;11.542;2023-07-28T17:44:17;0.00;;;0.00;;
47129;SDS011;69689;48.122;11.542;2023-07-28T17:46:42;0.00;;;0.00;;
47129;SDS011;69689;48.122;11.542;2023-07-28T17:49:07;0.00;;;0.00;;
47129;SDS011;69689;48.122;11.542;2023-07-28T17:51:33;0.00;;;0.00;;
47129;SDS011;69689;48.122;11.542;2023-07-28T17:53:58;0.00;;;0.00;;
47129;SDS011;69689;48.122;11.542;2023-07-28T17:56:24;0.00;;;0.00;;
47129;SDS011;69689;48.122;11.542;2023-07-28T17:58:49;0.00;;;0.00;;
47129;SDS011;69689;48.122;11.542;2023-07-28T18:01:15;0.00;;;0.00;;
47129;SDS011;69689;48.122;11.542;2023-07-28T18:03:41;0.00;;;0.00;;
47129;SDS011;69689;48.122;11.542;2023-07-28T18:06:06;0.10;;;0.00;;
47129;SDS011;69689;48.122;11.542;2023-07-28T18:08:31;0.00;;;0.00;;
47129;SDS011;69689;48.122;11.542;2023-07-28T18:10:56;0.00;;;0.00;;
47129;SDS011;69689;48.122;11.542;2023-07-28T18:13:22;0.00;;;0.00;;
47129;SDS011;69689;48.122;11.542;2023-07-28T18:15:47;0.00;;;0.00;;
47129;SDS011;69689;48.122;11.542;2023-07-28T18:18:13;0.00;;;0.00;;
47129;SDS011;69689;48.122;11.542;2023-07-28T18:20:38;0.00;;;0.00;;
47129;SDS011;69689;48.122;11.542;2023-07-28T18:23:03;0.00;;;0.00;;
47129;SDS011;69689;48.122;11.542;2023-07-28T18:25:29;0.00;;;0.00;;
47129;SDS011;69689;48.122;11.542;2023-07-28T18:27:54;0.07;;;0.07;;
47129;SDS011;69689;48.122;11.542;2023-07-28T18:30:20;0.00;;;0.00;;
47129;SDS011;69689;48.122;11.542;2023-07-28T18:32:46;0.05;;;0.05;;
47129;SDS011;69689;48.122;11.542;2023-07-28T18:35:11;0.08;;;0.08;;
47129;SDS011;69689;48.122;11.542;2023-07-28T18:37:37;0.00;;;0.00;;
47129;SDS011;69689;48.122;11.542;2023-07-28T18:40:03;0.00;;;0.00;;
47129;SDS011;69689;48.122;11.542;2023-07-28T18:42:28;0.00;;;0.00;;
47129;SDS011;69689;48.122;11.542;2023-07-28T18:44:53;0.00;;;0.00;;
47129;SDS011;69689;48.122;11.542;2023-07-28T18:47:20;0.00;;;0.00;;
47129;SDS011;69689;48.122;11.542;2023-07-28T18:49:45;0.00;;;0.00;;
47129;SDS011;69689;48.122;11.542;2023-07-28T18:52:12;0.00;;;0.00;;
47129;SDS011;69689;48.122;11.542;2023-07-28T18:54:38;0.03;;;0.03;;
47129;SDS011;69689;48.122;11.542;2023-07-28T18:57:03;0.00;;;0.00;;
47129;SDS011;69689;48.122;11.542;2023-07-28T18:59:29;0.00;;;0.00;;
